Time;durP1;ratioP1;P1;durP2;ratioP2;P2;SDS_P1;SDS_P2;PMS_P1;PMS_P2;Temp;Humidity;BMP_temperature;BMP_pressure;BME280_temperature;BME280_humidity;BME280_pressure;Samples;Min_cycle;Max_cycle;Signal;HPM_P1;HPM_P2
2021/11/01 00:01:22;;;;;;;;;;;10.80;99.90;;;;;;5054674;28;20381;-78
2021/11/01 00:03:48;;;;;;;;;;;10.80;99.90;;;;;;5054595;28;19959;-79
2021/11/01 00:06:14;;;;;;;;;;;10.80;99.90;;;;;;5056130;28;19950;-78
2021/11/01 00:08:41;;;;;;;;;;;10.80;99.90;;;;;;5057821;28;20280;-79
2021/11/01 00:11:07;;;;;;;;;;;10.80;99.90;;;;;;5055842;28;20384;-79
2021/11/01 00:13:33;;;;;;;;;;;10.80;99.90;;;;;;5058378;28;19919;-79
2021/11/01 00:15:58;;;;;;;;;;;10.80;99.90;;;;;;5056294;28;19978;-78
2021/11/01 00:18:24;;;;;;;;;;;10.80;99.90;;;;;;5057463;28;19913;-78
2021/11/01 00:20:49;;;;;;;;;;;10.80;99.90;;;;;;5056189;28;19912;-78
2021/11/01 00:23:15;;;;;;;;;;;10.80;99.90;;;;;;5057136;28;19959;-78
2021/11/01 00:25:41;;;;;;;;;;;10.70;99.90;;;;;;5057016;28;19919;-78
2021/11/01 00:28:08;;;;;;;;;;;10.70;99.90;;;;;;5055787;28;20317;-79
2021/11/01 00:30:34;;;;;;;;;;;10.70;99.90;;;;;;5048480;28;19913;-81
2021/11/01 00:32:59;;;;;;;;;;;10.70;99.90;;;;;;5053611;28;20019;-77
2021/11/01 00:35:25;;;;;;;;;;;10.70;99.90;;;;;;5053188;28;19935;-78
2021/11/01 00:37:50;;;;;;;;;;;10.70;99.90;;;;;;5054334;28;20012;-78
2021/11/01 00:40:16;;;;;;;;;;;10.70;99.90;;;;;;5050576;28;19965;-78
2021/11/01 00:42:41;;;;;;;;;;;10.70;99.90;;;;;;5053002;28;19913;-78
2021/11/01 00:45:08;;;;;;;;;;;10.60;99.90;;;;;;5053575;28;19919;-78
2021/11/01 00:47:33;;;;;;;;;;;10.60;99.90;;;;;;5054063;28;19916;-77
2021/11/01 00:49:59;;;;;;;;;;;10.60;99.90;;;;;;5051755;28;19912;-77
2021/11/01 00:52:30;;;;;;;;;;;10.60;99.90;;;;;;5054172;28;19913;-76
2021/11/01 00:55:01;;;;;;;;;;;10.60;99.90;;;;;;5052077;28;19912;-76
2021/11/01 00:57:27;;;;;;;;;;;10.60;99.90;;;;;;5052506;28;19913;-76
2021/11/01 00:59:53;;;;;;;;;;;10.70;99.90;;;;;;5053520;28;19919;-75
2021/11/01 01:02:18;;;;;;;;;;;10.70;99.90;;;;;;5053249;28;20444;-76
2021/11/01 01:04:43;;;;;;;;;;;10.60;99.90;;;;;;5052735;28;20110;-77
2021/11/01 01:07:09;;;;;;;;;;;10.60;99.90;;;;;;5051754;28;19912;-76
2021/11/01 01:09:35;;;;;;;;;;;10.60;99.90;;;;;;5052065;28;19920;-77
2021/11/01 01:12:01;;;;;;;;;;;10.60;99.90;;;;;;5053960;28;19916;-77
2021/11/01 01:14:27;;;;;;;;;;;10.60;99.90;;;;;;5053449;28;19958;-75
2021/11/01 01:16:54;;;;;;;;;;;10.60;99.90;;;;;;5053303;28;19913;-76
2021/11/01 01:19:23;;;;;;;;;;;10.60;99.90;;;;;;5052120;28;19971;-76
2021/11/01 01:24:33;;;;;;;;;;;10.60;99.90;;;;;;5053521;28;20348;-76
2021/11/01 01:26:58;;;;;;;;;;;10.60;99.90;;;;;;5051698;28;19960;-76
2021/11/01 01:29:24;;;;;;;;;;;10.50;99.90;;;;;;5052542;28;19928;-76
2021/11/01 01:31:50;;;;;;;;;;;10.50;99.90;;;;;;5051742;28;19913;-76
2021/11/01 01:34:16;;;;;;;;;;;10.50;99.90;;;;;;5051717;28;20369;-77
2021/11/01 01:36:42;;;;;;;;;;;10.50;99.90;;;;;;5051706;28;19920;-77
2021/11/01 01:39:08;;;;;;;;;;;10.40;99.90;;;;;;5050087;28;19936;-77
2021/11/01 01:41:33;;;;;;;;;;;10.50;99.90;;;;;;5046049;28;19913;-77
2021/11/01 01:44:00;;;;;;;;;;;10.50;99.90;;;;;;5046865;28;19966;-77
2021/11/01 01:46:26;;;;;;;;;;;10.50;99.90;;;;;;5035566;28;19909;-77
2021/11/01 01:48:54;;;;;;;;;;;10.40;99.90;;;;;;5044322;28;20391;-77
2021/11/01 01:51:21;;;;;;;;;;;10.40;99.90;;;;;;5047655;28;19917;-75
2021/11/01 01:53:46;;;;;;;;;;;10.30;99.90;;;;;;5051156;28;19959;-76
2021/11/01 01:56:12;;;;;;;;;;;10.30;99.90;;;;;;5052195;28;20361;-76
2021/11/01 01:58:42;;;;;;;;;;;10.30;99.90;;;;;;5052038;28;19920;-77
2021/11/01 02:01:08;;;;;;;;;;;10.30;99.90;;;;;;5048162;28;19963;-77
2021/11/01 02:03:36;;;;;;;;;;;10.30;99.90;;;;;;5051785;28;19913;-75
2021/11/01 02:06:28;;;;;;;;;;;10.30;99.90;;;;;;5051595;28;19913;-76
2021/11/01 02:09:05;;;;;;;;;;;10.30;99.90;;;;;;5040422;28;19928;-76
2021/11/01 02:11:37;;;;;;;;;;;10.30;99.90;;;;;;5051615;28;19913;-77
2021/11/01 02:14:04;;;;;;;;;;;10.20;99.90;;;;;;5052888;28;19909;-76
2021/11/01 02:16:32;;;;;;;;;;;10.20;99.90;;;;;;5051202;28;19920;-75
2021/11/01 02:18:58;;;;;;;;;;;10.20;99.90;;;;;;5052684;28;19920;-77
2021/11/01 02:21:29;;;;;;;;;;;10.20;99.90;;;;;;5051007;28;20019;-77
2021/11/01 02:24:06;;;;;;;;;;;10.30;99.90;;;;;;5052644;28;20046;-76
2021/11/01 02:26:33;;;;;;;;;;;10.30;99.90;;;;;;5051274;28;20365;-76
2021/11/01 02:28:59;;;;;;;;;;;10.30;99.90;;;;;;5051270;28;19935;-76
2021/11/01 02:31:25;;;;;;;;;;;10.30;99.90;;;;;;5052291;28;19920;-76
2021/11/01 02:33:51;;;;;;;;;;;10.30;99.90;;;;;;5052826;28;19928;-76
2021/11/01 02:36:17;;;;;;;;;;;10.30;99.90;;;;;;5043179;28;20020;-75
2021/11/01 02:38:44;;;;;;;;;;;10.30;99.90;;;;;;5052775;28;20361;-76
2021/11/01 02:41:20;;;;;;;;;;;10.30;99.90;;;;;;5052126;28;19999;-77
2021/11/01 02:43:50;;;;;;;;;;;10.20;99.90;;;;;;5052939;28;19913;-76
2021/11/01 02:46:15;;;;;;;;;;;10.20;99.90;;;;;;5050592;28;19924;-77
2021/11/01 02:48:44;;;;;;;;;;;10.20;99.90;;;;;;5051157;28;19916;-77
2021/11/01 02:51:09;;;;;;;;;;;10.30;99.90;;;;;;5050875;28;19916;-76
2021/11/01 02:53:35;;;;;;;;;;;10.20;99.90;;;;;;5053682;28;20426;-76
2021/11/01 02:56:00;;;;;;;;;;;10.20;99.90;;;;;;5062874;28;19916;-76
2021/11/01 02:58:27;;;;;;;;;;;10.20;99.90;;;;;;5054749;28;20361;-77
2021/11/01 03:00:52;;;;;;;;;;;10.20;99.90;;;;;;5056600;28;19913;-77
2021/11/01 03:03:18;;;;;;;;;;;10.20;99.90;;;;;;5056625;28;19916;-77
2021/11/01 03:05:44;;;;;;;;;;;10.20;99.90;;;;;;5062416;28;19920;-77
2021/11/01 03:08:09;;;;;;;;;;;10.30;99.90;;;;;;5055866;28;19913;-77
2021/11/01 03:10:35;;;;;;;;;;;10.30;99.90;;;;;;5056798;28;19920;-77
2021/11/01 03:13:01;;;;;;;;;;;10.30;99.90;;;;;;5057992;28;19971;-76
2021/11/01 03:15:28;;;;;;;;;;;10.30;99.90;;;;;;5061719;28;20391;-77
2021/11/01 03:18:04;;;;;;;;;;;10.20;99.90;;;;;;5055531;28;19913;-78
2021/11/01 03:20:32;;;;;;;;;;;10.20;99.90;;;;;;5059395;28;19913;-76
2021/11/01 03:22:59;;;;;;;;;;;10.20;99.90;;;;;;5057242;28;20020;-78
2021/11/01 03:25:34;;;;;;;;;;;10.20;99.90;;;;;;5060826;28;19999;-77
2021/11/01 03:28:01;;;;;;;;;;;10.20;99.90;;;;;;5055636;28;19998;-77
2021/11/01 03:30:28;;;;;;;;;;;10.10;99.90;;;;;;5041340;28;20067;-76
2021/11/01 03:32:55;;;;;;;;;;;10.20;99.90;;;;;;5055122;28;19935;-76
2021/11/01 03:35:22;;;;;;;;;;;10.10;99.90;;;;;;5054902;28;19913;-76
2021/11/01 03:37:51;;;;;;;;;;;10.10;99.90;;;;;;5061014;28;20368;-78
2021/11/01 03:40:19;;;;;;;;;;;10.20;99.90;;;;;;5060492;28;19925;-75
2021/11/01 03:42:45;;;;;;;;;;;10.10;99.90;;;;;;5057351;28;19919;-76
2021/11/01 03:45:12;;;;;;;;;;;10.10;99.90;;;;;;5055305;28;20349;-76
2021/11/01 03:47:48;;;;;;;;;;;10.10;99.90;;;;;;5060943;28;20284;-77
2021/11/01 03:50:41;;;;;;;;;;;10.10;99.90;;;;;;5056095;28;20403;-76
2021/11/01 03:53:01;;;;;;;;;;;10.00;99.90;;;;;;5055328;28;19909;-77
2021/11/01 03:55:29;;;;;;;;;;;10.10;99.90;;;;;;5054795;28;19936;-76
2021/11/01 03:57:55;;;;;;;;;;;10.10;99.90;;;;;;5060355;28;19918;-76
2021/11/01 04:00:22;;;;;;;;;;;10.00;99.90;;;;;;5056842;28;19913;-77
2021/11/01 04:02:48;;;;;;;;;;;10.00;99.90;;;;;;5054248;28;20146;-76
2021/11/01 04:05:13;;;;;;;;;;;10.00;99.90;;;;;;5053188;28;19912;-77
2021/11/01 04:07:39;;;;;;;;;;;10.10;99.90;;;;;;5058391;28;19931;-76
2021/11/01 04:10:07;;;;;;;;;;;10.10;99.90;;;;;;5054509;28;19948;-76
2021/11/01 04:12:33;;;;;;;;;;;10.10;99.90;;;;;;5036041;28;20003;-76
2021/11/01 04:15:20;;;;;;;;;;;10.10;99.90;;;;;;5055217;28;20044;-77
2021/11/01 04:17:49;;;;;;;;;;;10.10;99.90;;;;;;5054653;28;20380;-76
2021/11/01 04:22:41;;;;;;;;;;;10.10;99.90;;;;;;5055210;28;19938;-77
2021/11/01 04:25:07;;;;;;;;;;;10.00;99.90;;;;;;5053267;28;20369;-77
2021/11/01 04:27:33;;;;;;;;;;;10.00;99.90;;;;;;5054286;28;19971;-77
2021/11/01 04:29:59;;;;;;;;;;;10.00;99.90;;;;;;5052815;28;19917;-77
2021/11/01 04:32:39;;;;;;;;;;;10.00;99.90;;;;;;5053891;28;20355;-76
2021/11/01 04:35:13;;;;;;;;;;;10.00;99.90;;;;;;5054846;28;19963;-76
2021/11/01 04:37:42;;;;;;;;;;;9.90;99.90;;;;;;5059256;28;19936;-76
2021/11/01 04:53:38;;;;;;;;;;;9.90;99.90;;;;;;5053816;28;19962;-77
2021/11/01 04:56:04;;;;;;;;;;;9.90;99.90;;;;;;5058634;28;19935;-77
2021/11/01 04:58:29;;;;;;;;;;;9.90;99.90;;;;;;5052667;28;19944;-77
2021/11/01 05:00:55;;;;;;;;;;;9.90;99.90;;;;;;5053939;28;20388;-77
2021/11/01 05:05:46;;;;;;;;;;;9.90;99.90;;;;;;5054045;28;19912;-76
2021/11/01 05:08:13;;;;;;;;;;;9.90;99.90;;;;;;5052165;28;19924;-77
2021/11/01 05:10:41;;;;;;;;;;;9.90;99.90;;;;;;5053443;28;19912;-78
2021/11/01 05:13:11;;;;;;;;;;;9.90;99.90;;;;;;5061805;28;19948;-77
2021/11/01 05:15:46;;;;;;;;;;;9.90;99.90;;;;;;5069946;28;19916;-77
2021/11/01 05:18:21;;;;;;;;;;;9.90;99.90;;;;;;5052256;28;19913;-79
2021/11/01 05:20:54;;;;;;;;;;;9.90;99.90;;;;;;5052343;28;19909;-78
2021/11/01 05:25:59;;;;;;;;;;;9.80;99.90;;;;;;5058930;28;19909;-78
2021/11/01 05:28:40;;;;;;;;;;;9.80;99.90;;;;;;5052363;28;19973;-77
2021/11/01 05:31:09;;;;;;;;;;;9.80;99.90;;;;;;5052149;28;19920;-78
2021/11/01 05:36:00;;;;;;;;;;;9.80;99.90;;;;;;5057362;28;19913;-78
2021/11/01 05:38:26;;;;;;;;;;;9.80;99.90;;;;;;5053331;28;19932;-78
2021/11/01 05:40:51;;;;;;;;;;;9.80;99.90;;;;;;5053815;28;19978;-77
2021/11/01 05:43:17;;;;;;;;;;;9.80;99.90;;;;;;5066097;28;20373;-78
2021/11/01 05:45:43;;;;;;;;;;;9.90;99.90;;;;;;5070371;28;19936;-78
2021/11/01 05:48:08;;;;;;;;;;;9.90;99.90;;;;;;5053352;28;20395;-76
2021/11/01 05:50:36;;;;;;;;;;;9.80;99.90;;;;;;5052835;28;19916;-77
2021/11/01 05:53:04;;;;;;;;;;;9.80;99.90;;;;;;5058369;28;19913;-78
2021/11/01 05:58:12;;;;;;;;;;;9.70;99.90;;;;;;5053686;28;20000;-77
2021/11/01 06:00:55;;;;;;;;;;;9.80;99.90;;;;;;5050268;28;19952;-78
2021/11/01 06:03:25;;;;;;;;;;;9.80;99.90;;;;;;5061210;28;20327;-78
2021/11/01 06:13:48;;;;;;;;;;;9.90;99.90;;;;;;5050451;28;19967;-78
2021/11/01 06:16:13;;;;;;;;;;;9.90;99.90;;;;;;5053410;28;19912;-78
2021/11/01 06:18:40;;;;;;;;;;;9.90;99.90;;;;;;5052189;28;20289;-78
2021/11/01 06:21:07;;;;;;;;;;;10.00;99.90;;;;;;5052712;28;20008;-78
2021/11/01 06:23:34;;;;;;;;;;;9.90;99.90;;;;;;5063768;28;19917;-78
2021/11/01 06:26:01;;;;;;;;;;;9.90;99.90;;;;;;5052725;28;19924;-78
2021/11/01 06:28:26;;;;;;;;;;;9.90;99.90;;;;;;5053925;28;20363;-77
2021/11/01 06:30:55;;;;;;;;;;;9.90;99.90;;;;;;5055908;28;19919;-78
2021/11/01 06:41:43;;;;;;;;;;;9.90;99.90;;;;;;5057101;28;19928;-76
2021/11/01 07:19:05;;;;;;;;;;;10.30;99.90;;;;;;5056776;28;20332;-79
2021/11/01 07:21:42;;;;;;;;;;;10.30;99.90;;;;;;5072325;28;19912;-79
2021/11/01 08:29:26;;;;;;;;;;;10.70;99.90;;;;;;5055101;28;19940;-79
2021/11/01 08:37:33;;;;;;;;;;;11.00;99.90;;;;;;5054728;28;20408;-78
2021/11/01 08:40:09;;;;;;;;;;;11.00;99.90;;;;;;5053853;28;19919;-78
2021/11/01 09:20:19;;;;;;;;;;;11.90;99.90;;;;;;5051313;28;20400;-78
2021/11/01 09:23:07;;;;;;;;;;;11.90;99.90;;;;;;5054230;28;20370;-85
2021/11/01 09:28:08;;;;;;;;;;;11.80;99.90;;;;;;5063616;28;19943;-85
2021/11/01 09:42:03;;;;;;;;;;;11.90;99.90;;;;;;5065619;28;19948;-85
2021/11/01 09:44:51;;;;;;;;;;;11.90;99.90;;;;;;5055223;28;19913;-85
2021/11/01 09:47:42;;;;;;;;;;;11.90;99.90;;;;;;5052756;28;19912;-88
2021/11/01 09:50:09;;;;;;;;;;;12.00;99.90;;;;;;5055514;28;20000;-86
2021/11/01 09:52:34;;;;;;;;;;;12.10;99.90;;;;;;5056353;28;19913;-84
2021/11/01 09:55:13;;;;;;;;;;;12.10;99.90;;;;;;5054925;28;19920;-86
2021/11/01 09:59:10;;;;;;;;;;;12.10;99.90;;;;;;5065922;28;19920;-81
2021/11/01 10:00:25;;;;;;;;;;;12.00;99.90;;;;;;5055478;28;20417;-83
2021/11/01 10:02:51;;;;;;;;;;;12.00;99.90;;;;;;5055934;28;19913;-86
2021/11/01 10:05:21;;;;;;;;;;;12.00;99.90;;;;;;5055237;28;19913;-86
2021/11/01 10:07:47;;;;;;;;;;;12.10;99.90;;;;;;5056724;28;20007;-86
2021/11/01 10:10:14;;;;;;;;;;;12.20;99.90;;;;;;5056364;28;19952;-87
2021/11/01 10:12:43;;;;;;;;;;;12.20;99.90;;;;;;5057006;28;19909;-87
2021/11/01 10:18:05;;;;;;;;;;;12.40;99.90;;;;;;5050252;28;19919;-85
2021/11/01 10:20:32;;;;;;;;;;;12.50;99.90;;;;;;5056048;28;19990;-85
2021/11/01 10:22:58;;;;;;;;;;;12.40;99.90;;;;;;5055359;28;19958;-85
2021/11/01 10:25:25;;;;;;;;;;;12.50;99.90;;;;;;5054941;28;19974;-85
2021/11/01 10:28:02;;;;;;;;;;;12.60;99.90;;;;;;5054898;28;19928;-86
2021/11/01 10:30:29;;;;;;;;;;;12.70;99.90;;;;;;5055569;28;19952;-87
2021/11/01 10:32:56;;;;;;;;;;;12.70;99.90;;;;;;5055825;28;19995;-85
2021/11/01 10:35:27;;;;;;;;;;;12.70;99.90;;;;;;5051809;28;19917;-87
2021/11/01 10:38:20;;;;;;;;;;;12.70;99.90;;;;;;5054031;28;19912;-86
2021/11/01 10:40:51;;;;;;;;;;;12.80;99.90;;;;;;5053856;28;19912;-87
2021/11/01 10:43:31;;;;;;;;;;;12.70;99.90;;;;;;5045972;28;19912;-87
2021/11/01 11:13:36;;;;;;;;;;;12.90;99.90;;;;;;5050225;28;20305;-82
2021/11/01 11:16:03;;;;;;;;;;;13.00;99.90;;;;;;5053836;28;19924;-87
2021/11/01 11:39:08;;;;;;;;;;;13.50;99.90;;;;;;5051332;28;19957;-83
2021/11/01 11:47:23;;;;;;;;;;;13.50;99.90;;;;;;5030876;28;19920;-84
2021/11/01 11:49:50;;;;;;;;;;;13.50;99.90;;;;;;5050895;28;19962;-85
2021/11/01 11:52:16;;;;;;;;;;;13.50;99.90;;;;;;5051603;28;20332;-82
2021/11/01 11:54:45;;;;;;;;;;;13.60;99.90;;;;;;5049994;28;20047;-81
2021/11/01 11:57:29;;;;;;;;;;;13.60;99.90;;;;;;5051376;28;19913;-82
2021/11/01 11:59:55;;;;;;;;;;;13.70;99.90;;;;;;5042559;28;19920;-81
2021/11/01 12:02:38;;;;;;;;;;;13.80;99.90;;;;;;5062586;28;20374;-80
2021/11/01 12:05:07;;;;;;;;;;;13.70;99.90;;;;;;5053383;28;19966;-80
2021/11/01 12:07:49;;;;;;;;;;;13.70;99.90;;;;;;5055455;28;19909;-80
2021/11/01 12:13:13;;;;;;;;;;;13.90;99.90;;;;;;5041515;28;19921;-82
2021/11/01 12:18:32;;;;;;;;;;;13.90;99.90;;;;;;5047568;28;19920;-83
2021/11/01 12:21:00;;;;;;;;;;;13.90;99.90;;;;;;5052242;28;19913;-81
2021/11/01 12:23:39;;;;;;;;;;;13.90;99.90;;;;;;5050738;28;19921;-85
2021/11/01 12:26:14;;;;;;;;;;;13.90;99.90;;;;;;5049429;28;19923;-81
2021/11/01 12:28:41;;;;;;;;;;;13.90;99.90;;;;;;5050571;28;20297;-82
2021/11/01 12:31:10;;;;;;;;;;;13.90;99.90;;;;;;5047145;28;20323;-82
2021/11/01 12:33:37;;;;;;;;;;;14.10;99.90;;;;;;5047801;28;19912;-82
2021/11/01 12:36:06;;;;;;;;;;;14.00;99.90;;;;;;5046326;28;19991;-79
2021/11/01 12:38:48;;;;;;;;;;;13.90;99.90;;;;;;5044922;28;19913;-81
2021/11/01 12:41:15;;;;;;;;;;;13.90;99.90;;;;;;5048527;28;19975;-82
2021/11/01 12:44:44;;;;;;;;;;;14.00;99.90;;;;;;5048831;28;20361;-82
2021/11/01 12:57:35;;;;;;;;;;;14.20;99.90;;;;;;5047092;28;19935;-81
2021/11/01 13:00:03;;;;;;;;;;;14.20;99.90;;;;;;5055452;28;19921;-81
2021/11/01 13:02:30;;;;;;;;;;;14.20;99.90;;;;;;5049749;28;19916;-82
2021/11/01 13:04:57;;;;;;;;;;;14.30;99.90;;;;;;5049331;28;19939;-85
2021/11/01 13:20:39;;;;;;;;;;;13.60;99.90;;;;;;5045605;28;20365;-81
2021/11/01 13:23:06;;;;;;;;;;;13.80;99.90;;;;;;5047213;28;19913;-80
2021/11/01 13:25:42;;;;;;;;;;;14.10;99.90;;;;;;5047083;28;20361;-83
2021/11/01 13:38:50;;;;;;;;;;;14.00;99.90;;;;;;5045225;28;19959;-83
2021/11/01 13:44:05;;;;;;;;;;;13.90;99.90;;;;;;5055644;28;19912;-82
2021/11/01 13:46:30;;;;;;;;;;;13.80;99.90;;;;;;5046455;28;19913;-80
2021/11/01 13:48:57;;;;;;;;;;;13.80;99.90;;;;;;5050852;28;19916;-85
2021/11/01 13:51:23;;;;;;;;;;;13.80;99.90;;;;;;5051368;28;20265;-83
2021/11/01 13:54:58;;;;;;;;;;;13.80;99.90;;;;;;5048403;28;19920;-82
2021/11/01 13:56:50;;;;;;;;;;;13.80;99.90;;;;;;5044822;28;19917;-86
2021/11/01 14:28:59;;;;;;;;;;;13.30;99.90;;;;;;5058238;28;20305;-85
2021/11/01 14:34:27;;;;;;;;;;;13.40;99.90;;;;;;5058886;28;19947;-83
2021/11/01 14:55:08;;;;;;;;;;;13.30;99.90;;;;;;5076956;28;19927;-82
2021/11/01 15:10:05;;;;;;;;;;;13.00;99.90;;;;;;5080427;28;19915;-81
2021/11/01 15:15:03;;;;;;;;;;;13.00;99.90;;;;;;5081403;28;19901;-81
2021/11/01 15:27:40;;;;;;;;;;;12.90;99.90;;;;;;5080936;28;19951;-82
2021/11/01 16:18:57;;;;;;;;;;;10.40;99.90;;;;;;5053269;28;19958;-84
2021/11/01 16:21:22;;;;;;;;;;;10.40;99.90;;;;;;5049333;28;19913;-88
2021/11/01 16:23:48;;;;;;;;;;;10.40;99.90;;;;;;5052147;28;19917;-88
2021/11/01 16:28:41;;;;;;;;;;;10.40;99.90;;;;;;5060087;28;19956;-87
2021/11/01 16:31:33;;;;;;;;;;;10.50;99.90;;;;;;5061103;28;19916;-86
2021/11/01 16:34:06;;;;;;;;;;;10.60;99.90;;;;;;5055107;28;19917;-87
2021/11/01 16:36:48;;;;;;;;;;;10.60;99.90;;;;;;5059879;28;20387;-88
2021/11/01 16:39:14;;;;;;;;;;;10.50;99.90;;;;;;5058692;28;19960;-85
2021/11/01 16:41:41;;;;;;;;;;;10.50;99.90;;;;;;5059260;28;19908;-86
2021/11/01 16:44:20;;;;;;;;;;;10.40;99.90;;;;;;5058285;28;19908;-84
2021/11/01 16:46:48;;;;;;;;;;;10.40;99.90;;;;;;5059256;28;19909;-88
2021/11/01 16:49:13;;;;;;;;;;;10.40;99.90;;;;;;5059137;28;19936;-87
2021/11/01 16:51:41;;;;;;;;;;;10.40;99.90;;;;;;5060513;28;20203;-88
2021/11/01 16:54:09;;;;;;;;;;;10.40;99.90;;;;;;5059519;28;19944;-87
2021/11/01 17:04:43;;;;;;;;;;;10.30;99.90;;;;;;5038366;28;19913;-87
2021/11/01 17:07:22;;;;;;;;;;;10.20;99.90;;;;;;5051092;28;20324;-86
2021/11/01 17:10:13;;;;;;;;;;;10.20;99.90;;;;;;5057636;28;19923;-85
2021/11/01 17:24:08;;;;;;;;;;;10.00;99.90;;;;;;5052818;28;19912;-88
2021/11/01 17:26:48;;;;;;;;;;;10.00;99.90;;;;;;5049437;28;20353;-85
2021/11/01 17:29:44;;;;;;;;;;;10.00;99.90;;;;;;5047349;28;19921;-85
2021/11/01 17:35:30;;;;;;;;;;;9.90;99.90;;;;;;5052269;28;19978;-88
2021/11/01 18:41:04;;;;;;;;;;;9.70;99.90;;;;;;5068881;28;19973;-87
2021/11/01 18:43:48;;;;;;;;;;;9.70;99.90;;;;;;5070267;28;19913;-84
2021/11/01 18:51:54;;;;;;;;;;;9.70;99.90;;;;;;5066279;28;19920;-87
2021/11/01 18:54:24;;;;;;;;;;;9.70;99.90;;;;;;5062223;28;20015;-86
2021/11/01 18:56:50;;;;;;;;;;;9.70;99.90;;;;;;5074201;28;19928;-87
2021/11/01 18:59:17;;;;;;;;;;;9.60;99.90;;;;;;5057164;28;19912;-85
2021/11/01 19:01:43;;;;;;;;;;;9.60;99.90;;;;;;5060754;28;19916;-83
2021/11/01 19:04:37;;;;;;;;;;;9.70;99.90;;;;;;5059734;28;19940;-87
2021/11/01 19:07:15;;;;;;;;;;;9.60;99.90;;;;;;5059926;28;19913;-86
2021/11/01 20:04:46;;;;;;;;;;;9.40;99.90;;;;;;5053460;28;19982;-79
2021/11/01 21:25:13;;;;;;;;;;;9.20;99.90;;;;;;5055211;28;19927;-82
2021/11/01 21:27:39;;;;;;;;;;;9.10;99.90;;;;;;5054600;28;19924;-80
2021/11/01 21:30:05;;;;;;;;;;;9.10;99.90;;;;;;5054874;28;20026;-82
2021/11/01 21:32:31;;;;;;;;;;;9.10;99.90;;;;;;5054647;28;20369;-81
2021/11/01 21:35:03;;;;;;;;;;;9.10;99.90;;;;;;5055147;28;19909;-81
2021/11/01 21:37:29;;;;;;;;;;;9.00;99.90;;;;;;5054113;28;19916;-81
2021/11/01 21:39:57;;;;;;;;;;;9.00;99.90;;;;;;5054644;28;19913;-81
2021/11/01 21:42:22;;;;;;;;;;;9.00;99.90;;;;;;5051022;28;19978;-82
2021/11/01 21:44:48;;;;;;;;;;;9.00;99.90;;;;;;5051872;28;19920;-81
2021/11/01 21:47:17;;;;;;;;;;;9.00;99.90;;;;;;5052989;28;19913;-80
2021/11/01 21:49:43;;;;;;;;;;;9.00;99.90;;;;;;5054472;28;20364;-82
2021/11/01 21:52:10;;;;;;;;;;;9.00;99.90;;;;;;5052934;28;19913;-81
2021/11/01 21:54:43;;;;;;;;;;;9.10;99.90;;;;;;5053734;28;19909;-81
2021/11/01 21:57:36;;;;;;;;;;;9.00;99.90;;;;;;5053262;28;19963;-81
2021/11/01 22:21:51;;;;;;;;;;;8.80;99.90;;;;;;5054972;28;19993;-81
2021/11/01 22:24:59;;;;;;;;;;;8.80;99.90;;;;;;5054357;28;19913;-81
2021/11/01 22:43:01;;;;;;;;;;;8.70;99.90;;;;;;5054448;28;20369;-81
2021/11/01 22:58:39;;;;;;;;;;;8.50;99.90;;;;;;5053474;28;19916;-82
2021/11/01 23:01:12;;;;;;;;;;;8.50;99.90;;;;;;5053218;28;19913;-81
2021/11/01 23:06:17;;;;;;;;;;;8.50;99.90;;;;;;5053611;28;19955;-80
2021/11/01 23:33:23;;;;;;;;;;;8.30;99.90;;;;;;5057526;28;20007;-80
2021/11/01 23:35:50;;;;;;;;;;;8.30;99.90;;;;;;5054736;28;19991;-81
2021/11/01 23:38:16;;;;;;;;;;;8.30;99.90;;;;;;5053907;28;19913;-81
2021/11/01 23:40:42;;;;;;;;;;;8.30;99.90;;;;;;5055234;28;19951;-81
2021/11/01 23:43:12;;;;;;;;;;;8.30;99.90;;;;;;5057888;28;19913;-86
2021/11/01 23:45:38;;;;;;;;;;;8.30;99.90;;;;;;5058072;28;19916;-85
2021/11/01 23:48:05;;;;;;;;;;;8.20;99.90;;;;;;5058335;28;20365;-83
2021/11/01 23:50:34;;;;;;;;;;;8.30;99.90;;;;;;5057087;28;19917;-83
2021/11/01 23:53:06;;;;;;;;;;;8.30;99.90;;;;;;5055802;28;19920;-88
2021/11/01 23:55:32;;;;;;;;;;;8.20;99.90;;;;;;5058303;28;19913;-84
2021/11/01 23:57:57;;;;;;;;;;;8.20;99.90;;;;;;5057133;28;20285;-82
